This is the latest recevied weather packets stored in our database for station/object SQ7FJB-2. If no packets are shown the sender has not sent any weather packets the latest 10 day(s).
| Time | Temp. | Humidity | Pressure | Rain* | Wind** | Luminosity | Snow |
|---|---|---|---|---|---|---|---|
| 1777738913 | 21.67° C | 33% | 1019.2 hPa | 0 mm | - | - | - |
| 1777738312 | 22.22° C | 34% | 1019.3 hPa | 0 mm | - | - | - |
| 1777737701 | 23.89° C | 31% | 1019.4 hPa | 0 mm | - | - | - |
| 1777737089 | 23.33° C | 30% | 1019.6 hPa | 0 mm | - | - | - |
| 1777736475 | 24.44° C | 29% | 1019.7 hPa | 0 mm | - | - | - |
| 1777735862 | 25° C | 27% | 1019.8 hPa | 0 mm | - | - | - |
| 1777735262 | 23.89° C | 30% | 1020 hPa | 0 mm | - | - | - |
| 1777734650 | 23.89° C | 30% | 1020.1 hPa | 0 mm | - | - | - |
| 1777734049 | 23.89° C | 28% | 1020 hPa | 0 mm | - | - | - |
| 1777733450 | 23.89° C | 30% | 1020.1 hPa | 0 mm | - | - | - |
| 1777732837 | 23.33° C | 30% | 1020.2 hPa | 0 mm | - | - | - |
| 1777732237 | 23.33° C | 29% | 1020.3 hPa | 0 mm | - | - | - |
| 1777727987 | 22.78° C | 31% | 1021.1 hPa | 0 mm | - | - | - |
| 1777727375 | 23.33° C | 28% | 1021.2 hPa | 0 mm | - | - | - |
| 1777726762 | 22.78° C | 30% | 1021.4 hPa | 0 mm | - | - | - |
| 1777726162 | 22.78° C | 28% | 1021.5 hPa | 0 mm | - | - | - |
| 1777725562 | 22.22° C | 31% | 1021.6 hPa | 0 mm | - | - | - |
| 1777724949 | 22.78° C | 31% | 1021.7 hPa | 0 mm | - | - | - |
| 1777724349 | 22.22° C | 33% | 1021.9 hPa | 0 mm | - | - | - |
| 1777723749 | 22.22° C | 31% | 1022 hPa | 0 mm | - | - | - |
| 1777723137 | 22.22° C | 33% | 1022.1 hPa | 0 mm | - | - | - |
| 1777722537 | 22.22° C | 32% | 1022.2 hPa | 0 mm | - | - | - |
| 1777721937 | 22.22° C | 32% | 1022.3 hPa | 0 mm | - | - | - |
| 1777721337 | 21.11° C | 35% | 1022.4 hPa | 0 mm | - | - | - |
| 1777720724 | 21.11° C | 36% | 1022.6 hPa | 0 mm | - | - | - |
* Rain latest hour (hover to see other rain measurements)
** Current wind speed in m/s (hover to see current wind gust speed)